PWSweather.com
Personal Weather Stations
Station Observations
ALMOSTER
Urb. Mas Carreras, AlmosterES 43393

Urb. Mas CarrerasAlmosterES 43393

Lat: 41.1908333333, Lon: 1.1086111111

Elevation: 836.6

Station Type: Davis Vantage Pro 2

http://www.meteoalmoster.net

High Low Average
Temperature 68.4°F20.2°C 58.8°F14.9°C 63.4°F17.4°C
Dew Point 54.5°F12.5°C 48.0°F8.9°C 51.7°F10.9°C
Winds 24.0 mph 38.6 kmh Calm Calm 10.0 mph WSW16.1 kmh WSW
Wind Gusts 32.0 mph51.5 kmh 1.0 mph1.6 kmh 22.0 mph35.4 kmh
Humidity 68% 60% 66%
Pressure 30.27 in1025.1 mb 30.16 in1021.3 mb -
Precipitation 0.00 in0.0 mm - -
Hour Temp Dew Point Humidity Winds Wind Gusts Pressure Precip Precip Rate Daily Precip Total
12:00 AM 58.8°F14.9°C 48.0°F8.9°C 67% 19.0 mph W30.6 kmh W 28.0 mph45.1 kmh 30.27 in1025.1 mb 0.00 in0.0 mm 0.00 in0.0 mm 0.00 in0.0 mm
12:30 AM 59.0°F15.0°C 48.0°F8.9°C 67% 19.0 mph W30.6 kmh W 30.0 mph48.3 kmh 30.26 in1024.7 mb 0.00 in0.0 mm 0.00 in0.0 mm 0.00 in0.0 mm
01:00 AM 59.5°F15.3°C 49.1°F9.5°C 68% 15.0 mph W24.1 kmh W 24.0 mph38.6 kmh 30.26 in1024.7 mb 0.00 in0.0 mm 0.00 in0.0 mm 0.00 in0.0 mm
01:30 AM 60.1°F15.6°C 48.9°F9.4°C 67% 13.0 mph W20.9 kmh W 22.0 mph35.4 kmh 30.26 in1024.7 mb 0.00 in0.0 mm 0.00 in0.0 mm 0.00 in0.0 mm
02:00 AM 60.3°F15.7°C 49.3°F9.6°C 67% 11.0 mph WSW17.7 kmh WSW 19.0 mph30.6 kmh 30.26 in1024.7 mb 0.00 in0.0 mm 0.00 in0.0 mm 0.00 in0.0 mm
02:30 AM 59.4°F15.2°C 48.7°F9.3°C 68% Calm Calm 4.0 mph6.4 kmh 30.25 in1024.4 mb 0.00 in0.0 mm 0.00 in0.0 mm 0.00 in0.0 mm
03:00 AM 59.5°F15.3°C 49.1°F9.5°C 68% 1.0 mph WSW1.6 kmh WSW 6.0 mph9.7 kmh 30.26 in1024.7 mb 0.00 in0.0 mm 0.00 in0.0 mm 0.00 in0.0 mm
03:30 AM 59.7°F15.4°C 49.3°F9.6°C 68% 1.0 mph WSW1.6 kmh WSW 4.0 mph6.4 kmh 30.26 in1024.7 mb 0.00 in0.0 mm 0.00 in0.0 mm 0.00 in0.0 mm
04:00 AM 60.1°F15.6°C 49.5°F9.7°C 68% 7.0 mph SW11.3 kmh SW 19.0 mph30.6 kmh 30.25 in1024.4 mb 0.00 in0.0 mm 0.00 in0.0 mm 0.00 in0.0 mm
04:30 AM 60.3°F15.7°C 49.3°F9.6°C 67% Calm Calm 1.0 mph1.6 kmh 30.23 in1023.7 mb 0.00 in0.0 mm 0.00 in0.0 mm 0.00 in0.0 mm
05:00 AM 61.3°F16.3°C 50.4°F10.2°C 67% Calm Calm 4.0 mph6.4 kmh 30.23 in1023.7 mb 0.00 in0.0 mm 0.00 in0.0 mm 0.00 in0.0 mm
05:30 AM 61.9°F16.6°C 50.4°F10.2°C 66% 2.0 mph WSW3.2 kmh WSW 19.0 mph30.6 kmh 30.23 in1023.7 mb 0.00 in0.0 mm 0.00 in0.0 mm 0.00 in0.0 mm
06:00 AM 61.9°F16.6°C 50.4°F10.2°C 66% 4.0 mph W6.4 kmh W 19.0 mph30.6 kmh 30.22 in1023.4 mb 0.00 in0.0 mm 0.00 in0.0 mm 0.00 in0.0 mm
06:30 AM 62.4°F16.9°C 51.3°F10.7°C 67% 6.0 mph WSW9.7 kmh WSW 18.0 mph29.0 kmh 30.22 in1023.4 mb 0.00 in0.0 mm 0.00 in0.0 mm 0.00 in0.0 mm
07:00 AM 62.8°F17.1°C 51.6°F10.9°C 67% 1.0 mph W1.6 kmh W 26.0 mph41.8 kmh 30.22 in1023.4 mb 0.00 in0.0 mm 0.00 in0.0 mm 0.00 in0.0 mm
07:30 AM 62.4°F16.9°C 51.4°F10.8°C 67% 1.0 mph WSW1.6 kmh WSW 16.0 mph25.7 kmh 30.21 in1023.0 mb 0.00 in0.0 mm 0.00 in0.0 mm 0.00 in0.0 mm
08:00 AM 63.0°F17.2°C 51.4°F10.8°C 66% 5.0 mph W8.0 kmh W 19.0 mph30.6 kmh 30.20 in1022.7 mb 0.00 in0.0 mm 0.00 in0.0 mm 0.00 in0.0 mm
08:30 AM 63.0°F17.2°C 51.4°F10.8°C 66% 7.0 mph WSW11.3 kmh WSW 19.0 mph30.6 kmh 30.21 in1023.0 mb 0.00 in0.0 mm 0.00 in0.0 mm 0.00 in0.0 mm
09:00 AM 62.2°F16.8°C 51.3°F10.7°C 67% 11.0 mph W17.7 kmh W 22.0 mph35.4 kmh 30.22 in1023.4 mb 0.00 in0.0 mm 0.00 in0.0 mm 0.00 in0.0 mm
09:30 AM 62.4°F16.9°C 51.4°F10.8°C 67% 15.0 mph W24.1 kmh W 29.0 mph46.7 kmh 30.22 in1023.4 mb 0.00 in0.0 mm 0.00 in0.0 mm 0.00 in0.0 mm
10:00 AM 62.8°F17.1°C 51.6°F10.9°C 67% 20.0 mph W32.2 kmh W 31.0 mph49.9 kmh 30.20 in1022.7 mb 0.00 in0.0 mm 0.00 in0.0 mm 0.00 in0.0 mm
10:30 AM 63.1°F17.3°C 52.0°F11.1°C 67% 21.0 mph WNW33.8 kmh WNW 31.0 mph49.9 kmh 30.21 in1023.0 mb 0.00 in0.0 mm 0.00 in0.0 mm 0.00 in0.0 mm
11:00 AM 63.9°F17.7°C 52.3°F11.3°C 66% 21.0 mph WNW33.8 kmh WNW 30.0 mph48.3 kmh 30.21 in1023.0 mb 0.00 in0.0 mm 0.00 in0.0 mm 0.00 in0.0 mm
11:30 AM 64.0°F17.8°C 52.5°F11.4°C 66% 24.0 mph WNW38.6 kmh WNW 31.0 mph49.9 kmh 30.20 in1022.7 mb 0.00 in0.0 mm 0.00 in0.0 mm 0.00 in0.0 mm
12:00 PM 64.0°F17.8°C 52.5°F11.4°C 66% 24.0 mph W38.6 kmh W 31.0 mph49.9 kmh 30.21 in1023.0 mb 0.00 in0.0 mm 0.00 in0.0 mm 0.00 in0.0 mm
12:30 PM 64.2°F17.9°C 52.5°F11.4°C 66% 21.0 mph W33.8 kmh W 32.0 mph51.5 kmh 30.21 in1023.0 mb 0.00 in0.0 mm 0.00 in0.0 mm 0.00 in0.0 mm
01:00 PM 65.5°F18.6°C 53.2°F11.8°C 65% 13.0 mph WSW20.9 kmh WSW 27.0 mph43.5 kmh 30.21 in1023.0 mb 0.00 in0.0 mm 0.00 in0.0 mm 0.00 in0.0 mm
01:30 PM 65.7°F18.7°C 53.6°F12.0°C 65% 15.0 mph W24.1 kmh W 30.0 mph48.3 kmh 30.21 in1023.0 mb 0.00 in0.0 mm 0.00 in0.0 mm 0.00 in0.0 mm
02:00 PM 66.6°F19.2°C 54.0°F12.2°C 64% 13.0 mph WSW20.9 kmh WSW 26.0 mph41.8 kmh 30.21 in1023.0 mb 0.00 in0.0 mm 0.00 in0.0 mm 0.00 in0.0 mm
02:30 PM 67.1°F19.5°C 53.2°F11.8°C 61% 12.0 mph WSW19.3 kmh WSW 24.0 mph38.6 kmh 30.18 in1022.0 mb 0.00 in0.0 mm 0.00 in0.0 mm 0.00 in0.0 mm
03:00 PM 67.3°F19.6°C 53.8°F12.1°C 62% 15.0 mph WSW24.1 kmh WSW 29.0 mph46.7 kmh 30.17 in1021.7 mb 0.00 in0.0 mm 0.00 in0.0 mm 0.00 in0.0 mm
03:30 PM 68.0°F20.0°C 53.6°F12.0°C 60% 8.0 mph WSW12.9 kmh WSW 27.0 mph43.5 kmh 30.18 in1022.0 mb 0.00 in0.0 mm 0.00 in0.0 mm 0.00 in0.0 mm
04:00 PM 68.4°F20.2°C 54.5°F12.5°C 61% 6.0 mph W9.7 kmh W 27.0 mph43.5 kmh 30.16 in1021.3 mb 0.00 in0.0 mm 0.00 in0.0 mm 0.00 in0.0 mm
04:30 PM 68.2°F20.1°C 54.3°F12.4°C 61% 9.0 mph WSW14.5 kmh WSW 25.0 mph40.2 kmh 30.17 in1021.7 mb 0.00 in0.0 mm 0.00 in0.0 mm 0.00 in0.0 mm
05:00 PM 67.6°F19.8°C 54.1°F12.3°C 62% 12.0 mph W19.3 kmh W 30.0 mph48.3 kmh 30.17 in1021.7 mb 0.00 in0.0 mm 0.00 in0.0 mm 0.00 in0.0 mm
05:30 PM 66.6°F19.2°C 54.0°F12.2°C 64% 11.0 mph WSW17.7 kmh WSW 22.0 mph35.4 kmh 30.18 in1022.0 mb 0.00 in0.0 mm 0.00 in0.0 mm 0.00 in0.0 mm
06:00 PM 66.4°F19.1°C 53.8°F12.1°C 64% 3.0 mph WSW4.8 kmh WSW 18.0 mph29.0 kmh 30.18 in1022.0 mb 0.00 in0.0 mm 0.00 in0.0 mm 0.00 in0.0 mm
06:30 PM 65.7°F18.7°C 54.0°F12.2°C 66% 3.0 mph WSW4.8 kmh WSW 17.0 mph27.4 kmh 30.19 in1022.4 mb 0.00 in0.0 mm 0.00 in0.0 mm 0.00 in0.0 mm
07:00 PM 65.3°F18.5°C 54.1°F12.3°C 67% 1.0 mph WSW1.6 kmh WSW 8.0 mph12.9 kmh 30.19 in1022.4 mb 0.00 in0.0 mm 0.00 in0.0 mm 0.00 in0.0 mm
07:30 PM 64.9°F18.3°C 53.8°F12.1°C 67% 10.0 mph WSW16.1 kmh WSW 26.0 mph41.8 kmh 30.19 in1022.4 mb 0.00 in0.0 mm 0.00 in0.0 mm 0.00 in0.0 mm
08:00 PM 65.1°F18.4°C 53.8°F12.1°C 67% 10.0 mph WSW16.1 kmh WSW 19.0 mph30.6 kmh 30.20 in1022.7 mb 0.00 in0.0 mm 0.00 in0.0 mm 0.00 in0.0 mm